Time;durP1;ratioP1;P1;durP2;ratioP2;P2;SDS_P1;SDS_P2;PMS_P1;PMS_P2;Temp;Humidity;BMP_temperature;BMP_pressure;BME280_temperature;BME280_humidity;BME280_pressure;Samples;Min_cycle;Max_cycle;Signal;HPM_P1;HPM_P2
2021/06/28 00:01:11;;;;;;;;;13.67;12.33;;;;;35.03;28.73;100877.72;144153;569;132012;-74
2021/06/28 00:03:42;;;;;;;;;10.00;10.00;;;;;35.30;28.68;100878.19;144163;581;131023;-80
2021/06/28 00:06:16;;;;;;;;;11.33;11.00;;;;;35.32;28.27;100889.91;144156;572;131909;-75
2021/06/28 00:08:47;;;;;;;;;14.33;13.67;;;;;35.37;28.60;100897.28;144175;612;131021;-69
2021/06/28 00:11:18;;;;;;;;;12.33;12.33;;;;;35.39;28.15;100887.31;144163;589;131017;-68
2021/06/28 00:13:49;;;;;;;;;15.00;13.67;;;;;35.40;28.17;100883.34;144176;571;131020;-73
2021/06/28 00:16:23;;;;;;;;;11.67;10.67;;;;;35.42;27.76;100885.78;144157;618;132909;-77
2021/06/28 00:18:55;;;;;;;;;13.33;13.33;;;;;35.37;27.97;100888.84;144174;563;132010;-78
2021/06/28 00:21:25;;;;;;;;;13.00;13.00;;;;;35.26;28.06;100888.50;144167;577;131909;-71
2021/06/28 00:23:55;;;;;;;;;16.00;15.67;;;;;35.17;28.11;100885.81;144168;565;132010;-69
2021/06/28 00:26:26;;;;;;;;;14.00;12.67;;;;;35.10;28.23;100882.75;144154;573;132013;-73
2021/06/28 00:28:56;;;;;;;;;15.33;13.67;;;;;35.00;28.30;100884.03;144157;563;132012;-72
2021/06/28 00:31:26;;;;;;;;;12.33;12.33;;;;;34.97;27.86;100879.09;144154;565;132016;-70
2021/06/28 00:33:57;;;;;;;;;11.00;11.00;;;;;34.94;27.92;100888.22;144175;573;132008;-74
2021/06/28 00:36:27;;;;;;;;;13.33;12.33;;;;;34.85;28.05;100883.53;144158;664;132012;-71
2021/06/28 00:38:57;;;;;;;;;11.67;9.33;;;;;34.82;28.21;100878.63;144173;586;131021;-71
2021/06/28 00:41:28;;;;;;;;;12.33;12.33;;;;;34.78;28.15;100885.28;144162;648;131909;-72
2021/06/28 00:43:58;;;;;;;;;9.33;9.33;;;;;34.82;28.34;100884.25;144177;585;131020;-76
2021/06/28 00:46:32;;;;;;;;;14.00;13.00;;;;;34.83;28.43;100888.69;144170;564;131909;-72
2021/06/28 00:49:02;;;;;;;;;14.00;12.33;;;;;34.91;28.33;100894.53;144171;600;131021;-74
2021/06/28 00:51:33;;;;;;;;;14.33;13.67;;;;;34.94;28.29;100885.41;144155;610;132012;-71
2021/06/28 00:54:03;;;;;;;;;14.00;13.00;;;;;35.02;28.69;100880.84;144157;574;131020;-71
2021/06/28 00:56:34;;;;;;;;;15.33;11.33;;;;;35.06;28.25;100879.03;144159;582;132909;-68
2021/06/28 00:59:05;;;;;;;;;16.33;14.00;;;;;35.10;28.17;100883.59;144173;563;132008;-68
2021/06/28 01:01:35;;;;;;;;;12.33;10.00;;;;;34.29;29.96;100884.78;144159;585;131017;-68
2021/06/28 01:04:05;;;;;;;;;11.67;11.67;;;;;34.80;28.49;100880.97;144176;685;131020;-67
2021/06/28 01:06:35;;;;;;;;;13.33;12.33;;;;;34.55;29.28;100891.31;144155;597;133012;-68
2021/06/28 01:09:09;;;;;;;;;12.00;12.00;;;;;34.47;29.26;100895.03;144173;620;132011;-68
2021/06/28 01:11:39;;;;;;;;;13.00;13.00;;;;;34.70;28.58;100889.84;144162;600;132909;-68
2021/06/28 01:14:10;;;;;;;;;10.67;10.67;;;;;34.71;28.67;100894.28;144177;575;131020;-68
2021/06/28 01:16:40;;;;;;;;;14.00;14.00;;;;;34.73;28.56;100903.19;144157;576;131909;-68
2021/06/28 01:19:13;;;;;;;;;12.33;12.33;;;;;34.66;28.75;100894.53;144160;574;131020;-70
2021/06/28 01:21:44;;;;;;;;;15.33;13.33;;;;;34.64;28.70;100903.28;144151;587;132909;-71
2021/06/28 01:24:14;;;;;;;;;11.67;11.67;;;;;34.69;29.20;100897.44;144179;572;131021;-70
2021/06/28 01:26:45;;;;;;;;;15.67;15.33;;;;;34.69;28.64;100903.06;144152;564;132021;-71
2021/06/28 01:29:15;;;;;;;;;10.67;10.33;;;;;34.70;28.40;100909.50;144173;609;132012;-73
2021/06/28 01:31:45;;;;;;;;;15.33;12.67;;;;;34.71;28.62;100908.34;144154;605;132909;-73
2021/06/28 01:34:15;;;;;;;;;10.67;10.67;;;;;34.71;28.62;100911.13;144176;587;131020;-79
2021/06/28 01:36:45;;;;;;;;;10.33;10.33;;;;;34.62;28.90;100905.63;144164;565;132014;-71
2021/06/28 01:39:16;;;;;;;;;12.67;12.67;;;;;34.60;28.79;100910.78;144171;570;131021;-67
2021/06/28 01:41:46;;;;;;;;;12.00;11.00;;;;;34.50;28.60;100913.97;144154;567;131908;-66
2021/06/28 01:44:16;;;;;;;;;15.00;14.67;;;;;34.48;29.12;100907.91;144156;633;132012;-75
2021/06/28 01:46:53;;;;;;;;;14.33;14.00;;;;;34.45;28.75;100903.78;144155;614;132014;-71
2021/06/28 01:49:23;;;;;;;;;12.67;12.33;;;;;34.36;29.42;100903.06;144172;627;131022;-71
2021/06/28 01:51:54;;;;;;;;;14.00;12.00;;;;;34.29;29.39;100907.25;144151;631;132909;-70
2021/06/28 01:54:28;;;;;;;;;15.00;15.00;;;;;34.27;28.83;100897.50;144180;577;131021;-78
2021/06/28 01:56:59;;;;;;;;;7.67;7.67;;;;;33.82;30.03;100904.66;144163;582;132020;-70
2021/06/28 01:59:32;;;;;;;;;14.00;14.00;;;;;33.61;30.41;100899.84;144177;569;131020;-68
2021/06/28 02:02:04;;;;;;;;;8.33;7.33;;;;;33.58;30.52;100908.94;144173;602;132018;-68
2021/06/28 02:04:36;;;;;;;;;13.00;13.00;;;;;33.67;29.84;100906.06;144175;617;132010;-66
2021/06/28 02:07:09;;;;;;;;;13.67;12.33;;;;;33.57;30.83;100905.31;144155;572;131909;-75
2021/06/28 02:09:39;;;;;;;;;12.67;12.67;;;;;33.60;30.42;100906.59;144157;552;132012;-69
2021/06/28 02:12:10;;;;;;;;;13.33;11.67;;;;;33.61;30.03;100905.44;144155;620;132012;-73
2021/06/28 02:14:40;;;;;;;;;7.67;7.67;;;;;33.63;30.22;100900.34;144180;599;132012;-73
2021/06/28 02:17:10;;;;;;;;;13.33;12.00;;;;;33.64;30.38;100904.78;144156;621;132909;-80
2021/06/28 02:19:45;;;;;;;;;11.00;10.00;;;;;33.64;30.00;100910.41;144169;582;132010;-73
2021/06/28 02:22:15;;;;;;;;;15.00;13.67;;;;;33.62;29.62;100909.91;144159;584;131998;-77
2021/06/28 02:24:45;;;;;;;;;13.00;13.00;;;;;33.62;30.49;100912.72;144175;587;132011;-77
2021/06/28 02:27:16;;;;;;;;;12.33;12.33;;;;;33.65;30.63;100906.44;144173;582;131909;-79
2021/06/28 02:29:46;;;;;;;;;14.67;13.33;;;;;33.59;30.89;100913.38;144179;581;132010;-75
2021/06/28 02:32:16;;;;;;;;;14.67;12.00;;;;;33.51;30.66;100920.69;144157;597;132003;-79
2021/06/28 02:34:46;;;;;;;;;13.67;9.33;;;;;33.46;31.12;100920.88;144165;612;131020;-75
2021/06/28 02:37:16;;;;;;;;;14.00;13.00;;;;;33.38;31.40;100919.75;144158;644;132010;-73
2021/06/28 02:39:46;;;;;;;;;12.33;12.33;;;;;33.30;31.33;100923.41;144172;616;132013;-77
2021/06/28 02:42:17;;;;;;;;;13.33;13.33;;;;;33.30;31.32;100923.41;144154;579;132012;-71
2021/06/28 02:44:47;;;;;;;;;12.00;9.67;;;;;33.21;31.29;100926.25;144172;626;132013;-69
2021/06/28 02:47:17;;;;;;;;;16.00;15.00;;;;;33.17;31.48;100928.09;144151;579;132021;-72
2021/06/28 02:49:47;;;;;;;;;14.33;13.00;;;;;33.13;31.80;100924.34;144170;651;132010;-69
2021/06/28 02:52:20;;;;;;;;;11.00;9.67;;;;;33.08;31.39;100924.50;144170;581;132012;-67
2021/06/28 02:54:50;;;;;;;;;14.33;14.33;;;;;33.05;31.87;100922.38;144172;581;131021;-70
2021/06/28 02:57:20;;;;;;;;;11.00;10.67;;;;;32.90;32.24;100930.16;144156;640;132909;-69
2021/06/28 02:59:50;;;;;;;;;13.00;13.00;;;;;32.99;31.98;100925.37;144156;611;131022;-72
2021/06/28 03:02:20;;;;;;;;;18.00;16.33;;;;;32.98;32.01;100922.91;144150;630;132017;-71
2021/06/28 03:04:50;;;;;;;;;14.67;13.00;;;;;32.93;32.30;100931.50;144173;659;132010;-70
2021/06/28 03:07:20;;;;;;;;;16.67;16.33;;;;;32.96;31.82;100936.41;144152;569;132012;-72
2021/06/28 03:09:51;;;;;;;;;12.00;11.00;;;;;33.01;31.73;100941.81;144168;575;131020;-74
2021/06/28 03:12:21;;;;;;;;;15.33;13.67;;;;;32.99;32.09;100927.34;144151;603;132012;-73
2021/06/28 03:14:51;;;;;;;;;13.67;13.00;;;;;32.96;31.48;100942.03;144170;600;131020;-71
2021/06/28 03:17:21;;;;;;;;;16.33;15.67;;;;;32.96;31.91;100936.41;144165;586;131909;-72
2021/06/28 03:19:52;;;;;;;;;17.00;17.00;;;;;32.95;32.48;100940.38;144170;639;132010;-72
2021/06/28 03:22:25;;;;;;;;;17.67;16.33;;;;;32.94;32.21;100949.94;144158;628;132012;-71
2021/06/28 03:24:55;;;;;;;;;15.00;15.00;;;;;32.98;32.84;100950.91;144156;576;132008;-72
2021/06/28 03:27:25;;;;;;;;;13.67;12.33;;;;;32.99;33.46;100944.16;144153;615;131016;-73
2021/06/28 03:29:55;;;;;;;;;16.33;16.00;;;;;32.91;33.59;100951.41;144173;569;131020;-70
2021/06/28 03:32:25;;;;;;;;;13.67;13.67;;;;;32.89;33.59;100948.97;144151;621;132012;-68
2021/06/28 03:34:56;;;;;;;;;14.20;12.80;;;;;32.87;33.83;100954.03;144173;570;131020;-71
2021/06/28 03:37:26;;;;;;;;;16.00;15.33;;;;;32.89;34.04;100960.19;144159;570;132016;-70
2021/06/28 03:39:56;;;;;;;;;15.00;14.67;;;;;32.99;33.81;100952.53;144170;609;132012;-69
2021/06/28 03:42:26;;;;;;;;;20.67;16.00;;;;;33.02;34.35;100952.72;144165;635;132931;-67
2021/06/28 03:44:57;;;;;;;;;20.67;19.33;;;;;33.10;34.38;100961.41;144171;616;131020;-67
2021/06/28 03:47:27;;;;;;;;;15.33;14.00;;;;;33.20;34.69;100960.22;144144;586;132909;-70
2021/06/28 03:49:57;;;;;;;;;17.00;16.33;;;;;33.23;34.80;100962.34;144156;584;131016;-67
2021/06/28 03:52:27;;;;;;;;;16.33;15.67;;;;;33.21;34.91;100973.09;144153;660;132016;-68
2021/06/28 03:54:57;;;;;;;;;15.00;14.67;;;;;33.19;34.94;100967.81;144169;562;132008;-67
2021/06/28 03:57:28;;;;;;;;;16.00;14.00;;;;;33.24;35.18;100978.00;144156;573;131909;-70
2021/06/28 03:59:59;;;;;;;;;20.00;17.00;;;;;33.27;34.78;100974.53;144169;564;131022;-68
2021/06/28 04:02:30;;;;;;;;;15.67;15.00;;;;;33.30;35.45;100979.47;144157;651;131016;-69
2021/06/28 04:05:00;;;;;;;;;17.00;16.00;;;;;33.31;35.44;100976.34;144178;565;131020;-72
2021/06/28 04:07:30;;;;;;;;;15.00;15.00;;;;;33.44;35.50;100979.28;144161;620;133016;-76
2021/06/28 04:10:00;;;;;;;;;15.00;15.00;;;;;33.57;35.63;100991.41;144178;594;131021;-82
2021/06/28 04:12:30;;;;;;;;;16.33;14.00;;;;;33.70;35.28;100987.53;144149;571;133004;-77
2021/06/28 04:15:00;;;;;;;;;18.67;17.67;;;;;33.87;35.06;100994.19;144160;629;131020;-73
2021/06/28 04:17:31;;;;;;;;;17.00;14.33;;;;;34.04;34.98;100990.50;144149;604;132014;-69
2021/06/28 04:20:01;;;;;;;;;14.67;13.67;;;;;34.21;35.43;100994.31;144173;602;131022;-73
2021/06/28 04:22:31;;;;;;;;;13.33;13.33;;;;;34.37;35.51;101000.16;144153;564;131909;-70
2021/06/28 04:25:03;;;;;;;;;13.00;13.00;;;;;34.52;34.75;100993.94;144172;584;132012;-70
2021/06/28 04:27:34;;;;;;;;;14.33;14.33;;;;;34.66;35.00;100992.81;144159;597;132908;-73
2021/06/28 04:30:07;;;;;;;;;15.33;13.33;;;;;34.79;34.62;100997.28;144174;625;131022;-71
2021/06/28 04:32:39;;;;;;;;;13.33;13.33;;;;;34.89;34.42;100996.06;144162;583;132019;-74
2021/06/28 04:35:13;;;;;;;;;16.33;15.00;;;;;34.97;34.31;100997.13;144178;580;131020;-72
2021/06/28 04:37:45;;;;;;;;;16.00;14.67;;;;;35.01;33.60;101003.69;144157;576;131037;-72
2021/06/28 04:40:17;;;;;;;;;16.67;14.67;;;;;35.06;32.46;101011.91;144154;575;132010;-69
2021/06/28 04:42:49;;;;;;;;;15.33;14.67;;;;;35.15;32.68;101009.00;144155;565;132012;-68
2021/06/28 04:45:20;;;;;;;;;13.00;11.67;;;;;35.30;32.59;101004.69;144176;590;131021;-68
2021/06/28 04:47:57;;;;;;;;;13.33;13.33;;;;;35.45;32.30;101011.59;144151;579;132908;-72
2021/06/28 04:50:27;;;;;;;;;16.67;15.67;;;;;35.80;32.22;101004.72;144173;672;132010;-71
2021/06/28 04:52:58;;;;;;;;;15.33;13.67;;;;;35.98;32.14;101016.53;144159;599;131020;-70
2021/06/28 04:55:28;;;;;;;;;14.00;12.00;;;;;36.16;32.17;101019.94;144175;647;131020;-74
2021/06/28 04:57:58;;;;;;;;;13.00;13.00;;;;;36.29;32.38;101014.28;144167;606;132018;-72
2021/06/28 05:00:31;;;;;;;;;17.00;17.00;;;;;36.45;32.19;101017.97;144178;570;132008;-71
2021/06/28 05:03:03;;;;;;;;;11.00;10.67;;;;;36.51;32.09;101010.09;144155;563;132012;-77
2021/06/28 05:05:33;;;;;;;;;14.67;14.67;;;;;36.42;32.26;101017.84;144160;631;132010;-73
2021/06/28 05:08:04;;;;;;;;;16.00;15.33;;;;;36.31;32.28;101020.37;144156;636;132018;-69
2021/06/28 05:10:34;;;;;;;;;15.00;14.33;;;;;36.39;32.33;101027.84;144175;581;131022;-70
2021/06/28 05:13:04;;;;;;;;;15.33;15.33;;;;;36.53;32.21;101031.09;144154;621;132012;-75
2021/06/28 05:15:34;;;;;;;;;14.67;14.33;;;;;36.59;32.70;101033.69;144177;581;132010;-74
2021/06/28 05:18:04;;;;;;;;;19.00;18.33;;;;;36.55;32.81;101022.31;144156;563;131909;-75
2021/06/28 05:20:35;;;;;;;;;15.00;15.00;;;;;36.59;33.02;101028.03;144174;575;132010;-79
2021/06/28 05:23:06;;;;;;;;;14.00;14.00;;;;;36.61;33.25;101029.31;144167;679;132018;-72
2021/06/28 05:25:36;;;;;;;;;16.33;16.00;;;;;36.60;33.22;101035.31;144169;668;132012;-68
2021/06/28 05:28:06;;;;;;;;;15.00;14.33;;;;;36.64;33.29;101034.25;144155;616;131908;-70
2021/06/28 05:30:36;;;;;;;;;17.67;16.67;;;;;36.71;33.23;101041.25;144154;572;131997;-71
2021/06/28 05:33:10;;;;;;;;;17.00;16.00;;;;;36.59;33.75;101047.75;144154;636;131909;-73
2021/06/28 05:35:40;;;;;;;;;17.00;15.67;;;;;36.47;33.85;101049.41;144176;563;132010;-72
2021/06/28 05:38:11;;;;;;;;;12.67;12.67;;;;;36.52;33.81;101049.16;144159;599;132909;-70
2021/06/28 05:40:41;;;;;;;;;16.00;15.33;;;;;36.57;33.86;101055.72;144174;617;131020;-67
2021/06/28 05:43:11;;;;;;;;;14.33;14.33;;;;;36.61;33.86;101057.47;144157;650;131909;-69
2021/06/28 05:45:41;;;;;;;;;16.33;15.33;;;;;36.48;34.18;101055.84;144184;585;131010;-69
2021/06/28 05:48:11;;;;;;;;;17.33;15.33;;;;;36.83;33.88;101060.91;144165;622;132012;-73
2021/06/28 05:50:42;;;;;;;;;15.33;15.33;;;;;37.03;33.46;101059.09;144174;622;131020;-72
2021/06/28 05:53:12;;;;;;;;;16.00;13.33;;;;;37.12;33.42;101055.25;144151;597;133017;-77
2021/06/28 05:55:42;;;;;;;;;13.00;12.33;;;;;37.18;33.19;101053.84;144156;586;132010;-77
2021/06/28 05:58:13;;;;;;;;;19.67;14.67;;;;;37.11;33.54;101060.09;144156;586;131909;-74
2021/06/28 06:00:44;;;;;;;;;14.00;14.00;;;;;37.22;33.29;101060.37;144171;631;131021;-75
2021/06/28 06:03:15;;;;;;;;;16.33;15.67;;;;;37.23;33.48;101062.03;144154;603;132012;-72
2021/06/28 06:05:45;;;;;;;;;18.33;15.33;;;;;37.27;33.01;101062.91;144174;563;131022;-73
2021/06/28 06:08:15;;;;;;;;;18.00;17.67;;;;;37.24;33.18;101063.66;144156;614;132909;-73
2021/06/28 06:10:45;;;;;;;;;18.67;18.33;;;;;37.26;32.77;101066.12;144176;569;131020;-72
2021/06/28 06:13:16;;;;;;;;;17.00;16.00;;;;;37.28;33.01;101064.56;144166;626;131016;-70
2021/06/28 06:15:46;;;;;;;;;15.33;13.00;;;;;37.45;32.72;101063.41;144177;608;131023;-74
2021/06/28 06:18:18;;;;;;;;;12.67;12.00;;;;;37.53;32.92;101064.41;144160;565;131909;-75
2021/06/28 06:20:48;;;;;;;;;18.33;16.33;;;;;37.48;31.14;101064.69;144165;565;131012;-73
2021/06/28 06:23:20;;;;;;;;;15.67;13.00;;;;;37.52;31.32;101071.25;144157;626;131908;-74
2021/06/28 06:25:50;;;;;;;;;14.00;13.33;;;;;37.54;31.77;101070.91;144180;594;132010;-73
2021/06/28 06:28:20;;;;;;;;;12.00;12.00;;;;;37.57;31.75;101067.34;144151;577;132012;-74
2021/06/28 06:30:50;;;;;;;;;11.00;10.67;;;;;37.72;31.37;101071.31;144177;577;131021;-73
2021/06/28 06:33:21;;;;;;;;;18.00;16.33;;;;;37.82;31.38;101079.25;144160;611;132027;-74
2021/06/28 06:35:52;;;;;;;;;13.33;13.33;;;;;37.90;30.92;101072.59;144169;570;132011;-74
2021/06/28 06:38:22;;;;;;;;;10.67;10.33;;;;;37.87;30.65;101078.94;144173;577;131017;-75
2021/06/28 06:40:52;;;;;;;;;7.33;7.33;;;;;37.87;30.05;101076.12;144176;656;131020;-73
2021/06/28 06:43:23;;;;;;;;;12.00;12.00;;;;;37.79;29.68;101072.31;144156;598;132013;-72
2021/06/28 06:45:53;;;;;;;;;14.33;10.33;;;;;37.80;30.02;101068.31;144157;571;132010;-75
2021/06/28 06:48:23;;;;;;;;;13.00;12.67;;;;;38.12;29.06;101073.09;144156;583;131035;-76
2021/06/28 06:50:53;;;;;;;;;13.67;11.00;;;;;37.99;29.84;101072.41;144171;598;132013;-72
2021/06/28 06:53:23;;;;;;;;;12.50;12.00;;;;;38.09;29.02;101079.50;144159;569;132019;-71
2021/06/28 06:55:54;;;;;;;;;12.00;11.67;;;;;38.11;28.14;101076.28;144173;564;132009;-74
2021/06/28 06:58:24;;;;;;;;;12.00;11.00;;;;;38.15;26.78;101082.84;144165;570;131909;-75
2021/06/28 07:00:54;;;;;;;;;12.33;12.00;;;;;38.21;27.31;101075.72;144178;613;131023;-75
2021/06/28 07:03:24;;;;;;;;;11.33;10.33;;;;;38.22;26.44;101071.72;144166;599;132020;-75
2021/06/28 07:05:54;;;;;;;;;11.67;10.67;;;;;38.26;26.58;101078.25;144176;616;131021;-76
2021/06/28 07:08:24;;;;;;;;;12.33;12.33;;;;;38.34;25.91;101079.25;144161;610;131021;-75
2021/06/28 07:10:55;;;;;;;;;12.67;12.00;;;;;38.39;26.37;101078.94;144162;601;131020;-75
2021/06/28 07:13:25;;;;;;;;;11.33;10.67;;;;;38.36;24.98;101077.66;144162;565;131909;-76
2021/06/28 07:15:55;;;;;;;;;10.67;9.67;;;;;38.40;25.41;101077.75;144182;576;131013;-76
2021/06/28 07:18:25;;;;;;;;;11.33;11.00;;;;;38.54;25.92;101082.91;144154;595;132012;-75
2021/06/28 07:20:55;;;;;;;;;11.33;11.00;;;;;38.68;25.45;101082.41;144185;578;131012;-75
2021/06/28 07:23:25;;;;;;;;;15.00;12.00;;;;;38.79;25.86;101076.97;144166;587;131909;-75
2021/06/28 07:25:56;;;;;;;;;11.67;11.00;;;;;39.25;24.19;101072.59;144182;709;131012;-76
2021/06/28 07:28:28;;;;;;;;;12.00;11.00;;;;;38.79;25.53;101080.63;144161;604;132015;-75
2021/06/28 07:30:58;;;;;;;;;12.33;11.00;;;;;38.75;25.11;101079.72;144175;622;132010;-74
2021/06/28 07:33:33;;;;;;;;;12.00;12.00;;;;;38.87;25.36;101077.91;144152;589;132909;-81
2021/06/28 07:36:03;;;;;;;;;10.00;8.33;;;;;38.79;24.46;101077.78;144161;634;131020;-75
2021/06/28 07:38:34;;;;;;;;;8.00;6.67;;;;;38.85;23.58;101074.66;144168;582;132012;-77
2021/06/28 07:41:05;;;;;;;;;7.00;6.33;;;;;38.77;23.31;101079.34;144182;589;131020;-78
2021/06/28 07:43:36;;;;;;;;;10.67;10.00;;;;;38.86;23.82;101076.28;144168;599;131909;-77
2021/06/28 07:46:07;;;;;;;;;11.67;10.33;;;;;39.00;23.55;101075.75;144183;639;132010;-75
2021/06/28 07:48:37;;;;;;;;;9.33;9.00;;;;;39.24;22.66;101068.97;144165;572;132909;-78
2021/06/28 07:51:09;;;;;;;;;14.00;12.67;;;;;39.03;23.38;101070.19;144181;575;132012;-76
2021/06/28 07:53:39;;;;;;;;;9.00;9.00;;;;;39.07;23.97;101075.91;144175;591;131909;-79
2021/06/28 07:56:19;;;;;;;;;12.67;12.33;;;;;39.09;24.63;101072.72;144176;593;132012;-79
2021/06/28 07:58:50;;;;;;;;;6.00;6.00;;;;;39.51;24.26;101069.03;144161;609;133018;-80
2021/06/28 08:01:22;;;;;;;;;11.33;11.33;;;;;39.81;23.65;101067.47;144163;576;132010;-80
2021/06/28 08:03:52;;;;;;;;;10.00;9.00;;;;;39.89;22.96;101069.28;144156;573;132012;-79
2021/06/28 08:06:22;;;;;;;;;12.00;12.00;;;;;39.89;22.81;101070.06;144179;564;132011;-79
2021/06/28 08:08:52;;;;;;;;;11.00;11.00;;;;;39.93;23.87;101075.78;144161;564;132012;-78
2021/06/28 08:11:24;;;;;;;;;4.33;4.00;;;;;40.02;23.74;101072.69;144187;580;132012;-79
2021/06/28 08:13:55;;;;;;;;;11.00;11.00;;;;;40.14;23.30;101077.28;144165;576;132012;-80
2021/06/28 08:16:25;;;;;;;;;13.67;12.33;;;;;40.14;23.34;101078.13;144184;599;131020;-79
2021/06/28 08:18:56;;;;;;;;;13.00;12.33;;;;;40.16;22.81;101075.72;144167;688;131016;-79
2021/06/28 08:21:26;;;;;;;;;13.67;13.00;;;;;40.21;22.56;101076.59;144174;567;132012;-78
2021/06/28 08:23:56;;;;;;;;;13.33;13.00;;;;;40.28;22.54;101082.38;144156;589;132019;-79
2021/06/28 08:26:27;;;;;;;;;15.67;14.00;;;;;40.28;22.85;101085.19;144155;636;132002;-79
2021/06/28 08:28:57;;;;;;;;;12.00;12.00;;;;;40.32;22.99;101084.03;144160;754;131909;-79
2021/06/28 08:31:27;;;;;;;;;13.67;13.33;;;;;40.42;23.82;101085.41;144175;600;133010;-79
2021/06/28 08:33:57;;;;;;;;;10.67;9.33;;;;;40.60;23.11;101088.44;144161;758;132909;-79
2021/06/28 08:36:28;;;;;;;;;10.00;9.33;;;;;40.57;24.35;101079.94;144184;583;131021;-79
2021/06/28 08:38:58;;;;;;;;;9.33;9.33;;;;;40.43;22.62;101078.53;144159;571;131043;-82
2021/06/28 08:41:29;;;;;;;;;11.67;10.00;;;;;40.40;22.93;101082.16;144177;565;131020;-78
2021/06/28 08:43:59;;;;;;;;;11.00;10.00;;;;;40.50;24.84;101080.66;144172;565;131909;-79
2021/06/28 08:46:30;;;;;;;;;9.67;9.67;;;;;40.52;23.78;101088.75;144173;691;132012;-81
2021/06/28 08:49:01;;;;;;;;;13.00;11.33;;;;;40.59;23.83;101083.19;144161;663;132020;-82
2021/06/28 08:51:31;;;;;;;;;10.00;9.33;;;;;40.49;24.03;101083.88;144160;566;132012;-75
2021/06/28 08:54:09;;;;;;;;;10.33;9.33;;;;;40.64;23.58;101084.87;144160;573;131909;-74
2021/06/28 08:56:41;;;;;;;;;10.33;9.67;;;;;40.60;24.19;101084.81;144176;585;132012;-78
2021/06/28 08:59:12;;;;;;;;;11.67;10.33;;;;;40.28;23.70;101085.19;144151;649;132014;-81
2021/06/28 09:01:42;;;;;;;;;10.67;10.00;;;;;40.25;23.90;101080.28;144177;579;131020;-78
2021/06/28 09:04:12;;;;;;;;;12.00;11.33;;;;;40.15;22.57;101076.94;144159;570;132909;-78
2021/06/28 09:06:42;;;;;;;;;11.67;11.33;;;;;40.20;23.46;101078.63;144179;566;131023;-78
2021/06/28 09:09:17;;;;;;;;;11.33;11.33;;;;;40.14;25.14;101080.13;144166;662;132909;-81
2021/06/28 09:11:52;;;;;;;;;9.00;9.00;;;;;40.18;25.87;101073.31;144179;604;132012;-79
2021/06/28 09:14:24;;;;;;;;;12.00;12.00;;;;;40.21;25.70;101071.75;144160;586;132909;-79
2021/06/28 09:16:54;;;;;;;;;7.00;7.00;;;;;40.24;24.72;101072.97;144162;571;132012;-80
2021/06/28 09:19:24;;;;;;;;;11.33;10.67;;;;;40.18;24.54;101062.00;144157;595;132003;-78
2021/06/28 09:21:57;;;;;;;;;8.00;7.00;;;;;40.22;24.31;101066.88;144178;665;131021;-77
2021/06/28 09:24:37;;;;;;;;;10.33;10.00;;;;;40.31;24.65;101061.78;144159;588;132012;-79
2021/06/28 09:27:26;;;;;;;;;5.00;5.00;;;;;40.47;23.37;101070.91;144187;598;131020;-78
2021/06/28 09:30:00;;;;;;;;;9.00;9.00;;;;;40.65;23.77;101056.12;144164;571;131021;-72
2021/06/28 09:32:30;;;;;;;;;10.33;9.67;;;;;40.78;23.08;101062.38;144185;607;131020;-71
2021/06/28 09:35:01;;;;;;;;;8.33;8.33;;;;;40.88;22.86;101069.38;144177;715;131909;-80
2021/06/28 09:37:31;;;;;;;;;10.00;10.00;;;;;40.90;22.40;101069.81;144189;666;131021;-84
2021/06/28 09:40:02;;;;;;;;;9.67;9.67;;;;;40.92;22.69;101066.56;144156;696;131909;-82
2021/06/28 09:42:32;;;;;;;;;11.00;11.00;;;;;40.94;22.49;101059.31;144161;678;132012;-82
2021/06/28 09:45:08;;;;;;;;;11.67;11.67;;;;;41.08;22.54;101060.66;144161;606;132012;-83
2021/06/28 09:47:38;;;;;;;;;11.67;11.00;;;;;41.05;21.94;101062.25;144173;591;132012;-84
2021/06/28 09:50:20;;;;;;;;;11.33;10.00;;;;;40.91;22.44;101056.41;144160;587;131908;-81
2021/06/28 09:52:53;;;;;;;;;10.33;10.33;;;;;40.88;22.29;101058.03;144179;588;131020;-83
2021/06/28 09:55:35;;;;;;;;;12.67;11.67;;;;;40.97;22.72;101058.50;144163;685;132937;-80
2021/06/28 09:58:21;;;;;;;;;13.00;12.33;;;;;40.95;22.34;101049.59;144173;647;132001;-81
2021/06/28 10:01:03;;;;;;;;;11.00;11.00;;;;;41.08;22.02;101060.66;144165;590;132003;-81
2021/06/28 10:03:44;;;;;;;;;10.00;10.00;;;;;41.12;22.08;101050.16;144176;586;132012;-79
2021/06/28 10:09:10;;;;;;;;;8.00;6.67;;;;;41.06;21.88;101055.34;144169;591;131020;-78
2021/06/28 10:11:45;;;;;;;;;7.67;7.33;;;;;41.12;21.99;101050.16;144165;667;132909;-79
2021/06/28 10:14:16;;;;;;;;;13.00;10.33;;;;;41.03;22.25;101058.97;144178;569;131020;-82
2021/06/28 10:16:47;;;;;;;;;9.67;9.67;;;;;40.86;22.37;101057.63;144154;667;131909;-79
2021/06/28 10:19:20;;;;;;;;;10.00;10.00;;;;;40.91;22.73;101054.41;144179;698;131020;-81
2021/06/28 10:21:53;;;;;;;;;10.33;10.33;;;;;40.85;22.79;101050.31;144156;617;131909;-79
2021/06/28 10:24:24;;;;;;;;;8.00;8.00;;;;;40.63;23.00;101050.03;144185;571;131012;-80
2021/06/28 10:26:55;;;;;;;;;8.67;8.33;;;;;40.53;22.55;101054.37;144171;663;132909;-80
2021/06/28 10:29:25;;;;;;;;;6.67;6.33;;;;;40.23;23.28;101055.19;144188;577;131021;-80
2021/06/28 10:31:56;;;;;;;;;10.33;10.33;;;;;40.24;24.66;101047.47;144162;596;132012;-83
2021/06/28 10:34:27;;;;;;;;;11.67;11.67;;;;;40.25;24.22;101054.78;144161;591;131029;-83
2021/06/28 10:36:59;;;;;;;;;11.67;10.33;;;;;40.14;24.57;101041.31;144156;579;131910;-81
2021/06/28 10:39:31;;;;;;;;;11.33;11.33;;;;;40.15;24.81;101057.09;144184;608;131020;-82
2021/06/28 10:42:02;;;;;;;;;11.00;10.00;;;;;40.24;24.43;101050.31;144151;573;132015;-81
2021/06/28 10:44:50;;;;;;;;;11.33;11.33;;;;;40.27;24.65;101049.56;144181;664;131021;-79
2021/06/28 10:47:20;;;;;;;;;12.67;12.33;;;;;40.12;25.34;101037.22;144156;584;131909;-81
2021/06/28 10:49:52;;;;;;;;;10.33;10.33;;;;;40.24;24.41;101038.97;144175;582;132011;-81
2021/06/28 10:52:55;;;;;;;;;10.67;10.67;;;;;40.40;23.67;101030.31;144166;577;132909;-79
2021/06/28 10:55:43;;;;;;;;;12.00;10.33;;;;;40.51;23.98;101033.28;144176;569;131012;-78
2021/06/28 10:58:27;;;;;;;;;10.00;10.00;;;;;40.61;24.40;101026.94;144160;681;132018;-79
2021/06/28 11:01:17;;;;;;;;;10.33;10.00;;;;;40.77;25.01;101025.91;144158;645;131023;-78
2021/06/28 11:04:04;;;;;;;;;8.67;8.67;;;;;40.85;24.95;101017.09;144157;604;131909;-79
2021/06/28 11:06:35;;;;;;;;;9.67;9.67;;;;;40.75;24.90;101020.63;144176;633;131023;-80
2021/06/28 11:09:08;;;;;;;;;13.00;12.67;;;;;40.67;25.66;101016.84;144158;607;131909;-82
2021/06/28 11:12:24;;;;;;;;;13.00;12.00;;;;;40.72;25.46;101019.38;144181;607;131020;-80
2021/06/28 11:15:25;;;;;;;;;11.00;11.00;;;;;40.52;25.11;101010.22;144152;593;132012;-80
2021/06/28 11:17:58;;;;;;;;;9.67;9.00;;;;;40.35;25.20;101014.47;144185;577;131010;-82
2021/06/28 11:20:39;;;;;;;;;4.00;4.00;;;;;40.35;26.01;101011.62;144179;567;131910;-79
2021/06/28 11:23:16;;;;;;;;;9.00;8.67;;;;;40.41;25.70;101015.78;144186;595;131012;-81
2021/06/28 11:25:55;;;;;;;;;10.00;10.00;;;;;40.43;25.81;101002.03;144154;679;132020;-80
2021/06/28 11:28:39;;;;;;;;;13.00;13.00;;;;;40.59;26.16;100998.16;144158;574;132012;-80